Sioux Falls, South Dakota
Current Conditions -  °F | °C
As of 11:56 PM on Thursday 18 Dec 2014 (Local Time) from KFSD Reporting Station
Overcast Overcast  
Wind Chill: 19°   Ceiling: 2000
Heat Index: 27°   Visibility: 8mi
Dew Point: 24°   Wind: 8mph
Humidity: 89%   Direction: 190°S
Pressure: 30.18"   Gusts: NA
Location:  43.55°N, 96.73°W
Report Text: KFSD 190556Z 19007KT 8SM OVC020 M03/M04 A3018 RMK AO2 SLP242 4/002 T10281044 11028 21028 410281106 53003
Loading
Personal Weather Stations






























Interactive Weather Map New forecast layout! Learn more

10-Day Weather Forecast

Advertisements
Track Severe Weather on mobile